createdAt,value
2019-05-17T00:02:17.611Z,9.57
2019-05-17T00:05:06.947Z,9.58
2019-05-17T00:07:53.404Z,9.58
2019-05-17T00:10:41.053Z,9.54
2019-05-17T00:13:29.392Z,9.56
2019-05-17T00:16:17.536Z,9.55
2019-05-17T00:19:07.480Z,9.53
2019-05-17T00:21:53.712Z,9.53
2019-05-17T00:24:41.955Z,9.53
2019-05-17T00:27:29.592Z,9.52
2019-05-17T00:30:17.799Z,9.54
2019-05-17T00:33:07.774Z,9.56
2019-05-17T00:35:53.288Z,9.56
2019-05-17T00:38:48.284Z,9.56
2019-05-17T00:41:29.099Z,9.54
2019-05-17T00:44:17.092Z,9.57
2019-05-17T00:47:06.575Z,9.56
2019-05-17T00:49:52.458Z,9.57
2019-05-17T00:52:39.998Z,9.57
2019-05-17T00:55:27.726Z,9.57
2019-05-17T00:58:17.216Z,9.57
2019-05-17T01:01:03.307Z,9.54
2019-05-17T01:03:50.980Z,9.54
2019-05-17T01:06:38.443Z,9.59
2019-05-17T01:09:27.336Z,9.54
2019-05-17T01:12:16.321Z,9.57
2019-05-17T01:15:02.472Z,9.58
2019-05-17T01:17:50.116Z,9.57
2019-05-17T01:20:37.528Z,9.58
2019-05-17T01:23:27.179Z,9.58
2019-05-17T01:26:13.498Z,9.59
2019-05-17T01:29:01.417Z,9.59
2019-05-17T01:31:48.971Z,9.59
2019-05-17T01:34:37.588Z,9.56
2019-05-17T01:37:27.537Z,9.58
2019-05-17T01:40:13.080Z,9.53
2019-05-17T01:43:01.188Z,9.54
2019-05-17T01:45:48.774Z,9.54
2019-05-17T01:48:36.699Z,9.52
2019-05-17T01:51:26.354Z,9.50
2019-05-17T01:54:12.695Z,9.50
2019-05-17T01:57:00.373Z,9.49
2019-05-17T01:59:48.381Z,9.50
2019-05-17T02:02:38.058Z,9.51
2019-05-17T02:05:27.380Z,9.47
2019-05-17T02:08:14.008Z,9.49
2019-05-17T02:11:01.970Z,9.47
2019-05-17T02:13:49.750Z,9.50
2019-05-17T02:16:37.822Z,9.50
2019-05-17T02:19:26.558Z,9.48
2019-05-17T02:22:16.568Z,9.48
2019-05-17T02:25:01.753Z,9.45
2019-05-17T02:27:49.370Z,9.43
2019-05-17T02:30:37.118Z,9.41
2019-05-17T02:33:25.360Z,9.41
2019-05-17T02:36:14.293Z,9.39
2019-05-17T02:39:03.653Z,9.36
2019-05-17T02:41:49.330Z,9.40
2019-05-17T02:44:37.318Z,9.42
2019-05-17T02:47:24.926Z,9.42
2019-05-17T02:50:13.276Z,9.42
2019-05-17T02:53:04.168Z,9.41
2019-05-17T02:55:48.496Z,9.37
2019-05-17T02:58:36.177Z,9.35
2019-05-17T03:01:23.408Z,9.35
2019-05-17T03:04:13.027Z,9.41
2019-05-17T03:06:59.180Z,9.41
2019-05-17T03:09:47.113Z,9.40
2019-05-17T03:12:35.017Z,9.37
2019-05-17T03:15:23.499Z,9.35
2019-05-17T03:18:13.223Z,9.36
2019-05-17T03:20:58.721Z,9.35
2019-05-17T03:23:46.476Z,9.34
2019-05-17T03:26:34.091Z,9.34
2019-05-17T03:29:22.933Z,9.34
2019-05-17T03:32:16.728Z,9.36
2019-05-17T03:34:58.144Z,9.32
2019-05-17T03:37:45.840Z,9.32
2019-05-17T03:41:01.301Z,9.38
2019-05-17T03:43:22.659Z,9.38
2019-05-17T03:46:08.909Z,9.39
2019-05-17T03:48:56.553Z,9.39
2019-05-17T03:51:44.389Z,9.35
2019-05-17T03:54:32.703Z,9.41
2019-05-17T03:57:23.897Z,9.43
2019-05-17T04:00:08.552Z,9.44
2019-05-17T04:02:56.777Z,9.45
2019-05-17T04:05:44.324Z,9.48
2019-05-17T04:08:33.471Z,9.49
2019-05-17T04:11:31.005Z,9.49
2019-05-17T04:14:08.713Z,9.53
2019-05-17T04:16:57.345Z,9.57
2019-05-17T04:19:44.775Z,9.54
2019-05-17T04:22:33.162Z,9.61
2019-05-17T04:25:23.199Z,9.70
2019-05-17T04:28:08.476Z,9.73
2019-05-17T04:30:56.247Z,9.76
2019-05-17T04:33:44.008Z,9.79
2019-05-17T04:36:32.339Z,9.79
2019-05-17T04:39:22.405Z,9.88
2019-05-17T04:42:06.624Z,9.95
2019-05-17T04:44:54.418Z,10.02
2019-05-17T04:47:44.108Z,10.18
2019-05-17T04:50:29.720Z,10.26
2019-05-17T04:53:17.596Z,10.28
2019-05-17T04:56:05.116Z,10.16
2019-05-17T04:58:54.281Z,10.20
2019-05-17T05:01:43.597Z,10.22
2019-05-17T05:04:29.180Z,10.29
2019-05-17T05:07:16.724Z,10.45
2019-05-17T05:10:04.782Z,10.62
2019-05-17T05:12:52.757Z,10.74
2019-05-17T05:15:43.730Z,10.87
2019-05-17T05:18:28.135Z,10.93
2019-05-17T05:21:16.566Z,10.92
2019-05-17T05:24:04.687Z,10.90
2019-05-17T05:26:52.798Z,10.90
2019-05-17T05:29:41.650Z,10.84
2019-05-17T05:32:28.948Z,10.83
2019-05-17T05:35:16.592Z,10.91
2019-05-17T05:38:07.126Z,11.09
2019-05-17T05:40:52.870Z,11.17
2019-05-17T05:43:41.942Z,11.09
2019-05-17T05:46:28.754Z,11.09
2019-05-17T05:49:16.571Z,11.03
2019-05-17T05:52:04.156Z,10.99
2019-05-17T05:54:52.135Z,11.08
2019-05-17T05:57:42.024Z,11.25
2019-05-17T06:00:27.354Z,11.63
2019-05-17T06:03:15.196Z,12.19
2019-05-17T06:06:03.221Z,12.50
2019-05-17T06:08:52.089Z,12.69
2019-05-17T06:11:41.491Z,12.89
2019-05-17T06:14:27.158Z,13.00
2019-05-17T06:17:15.588Z,13.05
2019-05-17T06:20:03.187Z,13.12
2019-05-17T06:22:51.843Z,13.29
2019-05-17T06:25:39.140Z,13.33
2019-05-17T06:28:28.070Z,13.29
2019-05-17T06:31:15.770Z,13.31
2019-05-17T06:34:03.959Z,13.46
2019-05-17T06:36:52.776Z,13.53
2019-05-17T06:39:41.828Z,13.55
2019-05-17T06:42:39.325Z,13.57
2019-05-17T06:45:15.185Z,13.57
2019-05-17T06:48:02.797Z,13.51
2019-05-17T06:50:51.940Z,13.53
2019-05-17T06:53:37.800Z,13.62
2019-05-17T06:56:25.640Z,13.69
2019-05-17T06:59:15.908Z,13.78
2019-05-17T07:02:03.632Z,13.92
2019-05-17T07:04:51.944Z,13.75
2019-05-17T07:07:40.582Z,13.51
2019-05-17T07:10:30.178Z,13.40
2019-05-17T07:13:16.847Z,13.31
2019-05-17T07:16:04.858Z,13.35
2019-05-17T07:18:52.399Z,13.41
2019-05-17T07:21:40.591Z,13.52
2019-05-17T07:24:30.001Z,13.66
2019-05-17T07:27:16.700Z,13.71
2019-05-17T07:30:05.346Z,13.72
2019-05-17T07:32:53.207Z,13.79
2019-05-17T07:35:41.064Z,13.96
2019-05-17T07:38:30.207Z,14.04
2019-05-17T07:41:17.118Z,14.10
2019-05-17T07:44:04.928Z,14.19
2019-05-17T07:46:52.680Z,14.33
2019-05-17T07:49:40.924Z,14.55
2019-05-17T07:52:29.959Z,14.64
2019-05-17T07:55:16.124Z,14.82
2019-05-17T07:58:03.802Z,14.30
2019-05-17T08:00:51.684Z,14.93
2019-05-17T08:03:40.530Z,15.05
2019-05-17T08:06:30.359Z,15.03
2019-05-17T08:09:15.472Z,15.07
2019-05-17T08:12:03.372Z,15.01
2019-05-17T08:14:51.242Z,14.97
2019-05-17T08:17:39.657Z,15.02
2019-05-17T08:20:29.824Z,15.11
2019-05-17T08:23:15.047Z,15.24
2019-05-17T08:26:02.579Z,15.30
2019-05-17T08:28:50.880Z,15.40
2019-05-17T08:31:40.424Z,15.53
2019-05-17T08:34:28.927Z,15.71
2019-05-17T08:37:14.590Z,15.80
2019-05-17T08:40:02.786Z,15.69
2019-05-17T08:42:50.730Z,15.73
2019-05-17T08:45:40.770Z,15.84
2019-05-17T08:48:26.012Z,16.07
2019-05-17T08:51:14.204Z,16.22
2019-05-17T08:54:01.928Z,16.30
2019-05-17T08:56:50.427Z,16.23
2019-05-17T08:59:40.201Z,16.14
2019-05-17T09:02:25.805Z,16.15
2019-05-17T09:05:13.640Z,16.28
2019-05-17T09:08:01.220Z,16.41
2019-05-17T09:10:50.477Z,16.49
2019-05-17T09:13:37.142Z,16.54
2019-05-17T09:16:25.588Z,16.59
2019-05-17T09:19:13.399Z,16.62
2019-05-17T09:22:01.234Z,16.62
2019-05-17T09:24:50.126Z,16.83
2019-05-17T09:27:39.649Z,17.04
2019-05-17T09:30:25.829Z,17.12
2019-05-17T09:33:13.329Z,17.35
2019-05-17T09:36:01.369Z,17.48
2019-05-17T09:38:49.511Z,17.58
2019-05-17T09:41:39.604Z,17.52
2019-05-17T09:44:25.002Z,17.36
2019-05-17T09:47:12.392Z,17.35
2019-05-17T09:50:00.820Z,17.29
2019-05-17T09:52:49.399Z,17.19
2019-05-17T09:55:36.512Z,17.16
2019-05-17T09:58:24.631Z,17.12
2019-05-17T10:01:13.092Z,17.16
2019-05-17T10:04:01.298Z,17.19
2019-05-17T10:06:51.306Z,17.18
2019-05-17T10:09:39.834Z,17.06
2019-05-17T10:12:25.134Z,16.91
2019-05-17T10:15:13.086Z,16.88
2019-05-17T10:18:00.843Z,16.89
2019-05-17T10:20:50.480Z,17.04
2019-05-17T10:23:36.486Z,17.18
2019-05-17T10:26:24.035Z,17.28
2019-05-17T10:29:12.382Z,17.44
2019-05-17T10:32:00.369Z,17.51
2019-05-17T10:34:49.533Z,17.63
2019-05-17T10:37:36.396Z,17.52
2019-05-17T10:40:24.677Z,17.62
2019-05-17T10:43:12.522Z,17.69
2019-05-17T10:46:00.603Z,17.75
2019-05-17T10:48:50.025Z,17.71
2019-05-17T10:51:36.569Z,17.68
2019-05-17T10:54:24.878Z,17.79
2019-05-17T10:57:12.576Z,17.99
2019-05-17T11:00:00.049Z,18.02
2019-05-17T11:02:50.343Z,18.74
2019-05-17T11:05:36.520Z,19.14
2019-05-17T11:08:24.623Z,19.55
2019-05-17T11:11:12.399Z,19.85
2019-05-17T11:14:00.012Z,19.78
2019-05-17T11:16:48.013Z,19.53
2019-05-17T11:19:36.390Z,18.86
2019-05-17T11:22:24.670Z,18.31
2019-05-17T11:25:12.192Z,17.79
2019-05-17T11:28:00.306Z,17.39
2019-05-17T11:30:47.993Z,17.06
2019-05-17T11:33:36.192Z,16.90
2019-05-17T11:36:23.652Z,16.94
2019-05-17T11:39:11.471Z,17.06
2019-05-17T11:41:59.343Z,17.13
2019-05-17T11:44:47.639Z,17.19
2019-05-17T11:47:35.577Z,17.20
2019-05-17T11:50:23.347Z,17.14
2019-05-17T11:53:11.078Z,17.20
2019-05-17T11:55:58.844Z,17.30
2019-05-17T11:58:46.511Z,17.36
2019-05-17T12:01:33.988Z,17.51
2019-05-17T12:04:22.343Z,17.64
2019-05-17T12:07:09.805Z,17.69
2019-05-17T12:09:57.682Z,17.73
2019-05-17T12:12:45.482Z,18.12
2019-05-17T12:15:44.307Z,18.48
2019-05-17T12:18:20.813Z,18.53
2019-05-17T12:21:08.461Z,18.34
2019-05-17T12:23:56.208Z,18.15
2019-05-17T12:26:47.358Z,18.03
2019-05-17T12:29:31.934Z,18.02
2019-05-17T12:32:19.607Z,18.53
2019-05-17T12:35:07.381Z,19.63
2019-05-17T12:37:55.170Z,20.58
2019-05-17T12:40:42.737Z,21.04
2019-05-17T12:43:30.323Z,20.87
2019-05-17T12:46:18.589Z,20.67
2019-05-17T12:49:06.014Z,19.34
2019-05-17T12:51:54.223Z,19.89
2019-05-17T12:54:42.358Z,19.43
2019-05-17T12:57:30.684Z,19.10
2019-05-17T13:00:18.574Z,18.88
2019-05-17T13:03:06.462Z,18.68
2019-05-17T13:05:53.947Z,18.62
2019-05-17T13:08:42.034Z,18.51
2019-05-17T13:11:30.101Z,18.35
2019-05-17T13:14:18.352Z,18.15
2019-05-17T13:17:06.385Z,17.96
2019-05-17T13:19:54.278Z,17.99
2019-05-17T13:22:42.166Z,17.97
2019-05-17T13:25:30.432Z,17.95
2019-05-17T13:28:18.358Z,17.85
2019-05-17T13:31:06.095Z,17.74
2019-05-17T13:33:53.890Z,17.68
2019-05-17T13:36:41.644Z,17.73
2019-05-17T13:39:29.890Z,17.89
2019-05-17T13:42:18.342Z,17.86
2019-05-17T13:45:06.529Z,17.94
2019-05-17T13:47:54.336Z,17.98
2019-05-17T13:50:42.085Z,17.99
2019-05-17T13:53:30.529Z,17.81
2019-05-17T13:56:18.035Z,17.62
2019-05-17T13:59:05.890Z,17.41
2019-05-17T14:01:53.625Z,17.20
2019-05-17T14:04:41.620Z,17.19
2019-05-17T14:07:29.878Z,17.16
2019-05-17T14:10:27.058Z,17.09
2019-05-17T14:13:05.776Z,17.11
2019-05-17T14:15:53.537Z,17.07
2019-05-17T14:18:41.135Z,17.01
2019-05-17T14:21:29.006Z,16.91
2019-05-17T14:24:17.017Z,16.84
2019-05-17T14:27:04.940Z,16.72
2019-05-17T14:29:53.155Z,16.67
2019-05-17T14:32:40.735Z,16.59
2019-05-17T14:35:28.063Z,16.52
2019-05-17T14:38:16.536Z,16.52
2019-05-17T14:41:07.230Z,16.43
2019-05-17T14:43:52.050Z,16.40
2019-05-17T14:46:39.833Z,16.34
2019-05-17T14:49:27.600Z,16.32
2019-05-17T14:52:15.068Z,16.34
2019-05-17T14:55:03.258Z,16.36
2019-05-17T14:57:51.607Z,16.46
2019-05-17T15:00:39.798Z,16.57
2019-05-17T15:03:27.523Z,16.59
2019-05-17T15:06:15.140Z,16.47
2019-05-17T15:09:03.944Z,16.34
2019-05-17T15:11:51.554Z,16.37
2019-05-17T15:14:39.055Z,16.53
2019-05-17T15:17:26.908Z,16.80
2019-05-17T15:20:14.856Z,17.04
2019-05-17T15:23:02.420Z,17.14
2019-05-17T15:25:49.914Z,17.10
2019-05-17T15:28:37.436Z,17.05
2019-05-17T15:31:25.127Z,16.91
2019-05-17T15:34:13.010Z,16.66
2019-05-17T15:37:00.493Z,16.45
2019-05-17T15:39:48.047Z,16.37
2019-05-17T15:42:44.030Z,16.37
2019-05-17T15:45:23.327Z,16.40
2019-05-17T15:48:11.305Z,16.40
2019-05-17T15:50:59.201Z,16.40
2019-05-17T15:53:46.923Z,16.46
2019-05-17T15:56:34.728Z,16.60
2019-05-17T15:59:23.006Z,16.76
2019-05-17T16:02:10.865Z,16.94
2019-05-17T16:05:01.692Z,17.08
2019-05-17T16:07:49.651Z,17.17
2019-05-17T16:10:37.812Z,17.20
2019-05-17T16:13:25.698Z,17.16
2019-05-17T16:16:13.125Z,17.07
2019-05-17T16:19:00.641Z,16.97
2019-05-17T16:21:48.276Z,16.90
2019-05-17T16:24:36.196Z,16.78
2019-05-17T16:27:24.594Z,16.70
2019-05-17T16:30:12.677Z,16.63
2019-05-17T16:33:00.875Z,16.63
2019-05-17T16:35:48.868Z,16.63
2019-05-17T16:38:36.990Z,16.66
2019-05-17T16:41:24.562Z,16.65
2019-05-17T16:44:14.563Z,16.69
2019-05-17T16:46:59.737Z,16.70
2019-05-17T16:49:47.469Z,16.69
2019-05-17T16:52:35.129Z,16.68
2019-05-17T16:55:25.943Z,16.65
2019-05-17T16:58:10.540Z,16.63
2019-05-17T17:00:58.490Z,16.62
2019-05-17T17:03:46.081Z,16.60
2019-05-17T17:06:34.329Z,16.55
2019-05-17T17:09:21.775Z,16.42
2019-05-17T17:12:10.103Z,16.32
2019-05-17T17:14:57.657Z,16.23
2019-05-17T17:17:45.267Z,16.17
2019-05-17T17:20:32.998Z,16.07
2019-05-17T17:23:20.629Z,15.99
2019-05-17T17:26:11.203Z,15.93
2019-05-17T17:28:59.239Z,15.94
2019-05-17T17:31:47.130Z,15.95
2019-05-17T17:34:35.063Z,15.96
2019-05-17T17:37:22.861Z,15.97
2019-05-17T17:40:11.043Z,15.96
2019-05-17T17:42:58.779Z,15.97
2019-05-17T17:45:46.491Z,16.09
2019-05-17T17:48:33.931Z,16.27
2019-05-17T17:51:22.179Z,16.40
2019-05-17T17:54:10.018Z,16.52
2019-05-17T17:56:57.724Z,16.50
2019-05-17T17:59:45.377Z,16.40
2019-05-17T18:02:33.200Z,16.27
2019-05-17T18:05:20.788Z,16.11
2019-05-17T18:08:09.130Z,15.98
2019-05-17T18:10:57.032Z,15.89
2019-05-17T18:13:44.736Z,15.81
2019-05-17T18:16:32.393Z,15.69
2019-05-17T18:19:20.032Z,15.55
2019-05-17T18:22:07.643Z,15.42
2019-05-17T18:24:55.494Z,15.31
2019-05-17T18:27:43.509Z,15.21
2019-05-17T18:30:31.151Z,15.06
2019-05-17T18:33:18.776Z,14.93
2019-05-17T18:36:06.439Z,14.78
2019-05-17T18:38:54.128Z,14.66
2019-05-17T18:41:41.665Z,14.52
2019-05-17T18:44:29.568Z,14.39
2019-05-17T18:47:17.136Z,14.25
2019-05-17T18:50:04.995Z,14.12
2019-05-17T18:52:52.735Z,13.97
2019-05-17T18:55:40.472Z,13.86
2019-05-17T18:58:28.819Z,13.77
2019-05-17T19:01:16.337Z,13.69
2019-05-17T19:04:04.455Z,13.61
2019-05-17T19:06:52.323Z,13.53
2019-05-17T19:09:39.947Z,13.42
2019-05-17T19:12:27.916Z,13.34
2019-05-17T19:15:15.610Z,13.26
2019-05-17T19:18:03.060Z,13.19
2019-05-17T19:20:50.996Z,13.09
2019-05-17T19:23:38.914Z,13.00
2019-05-17T19:26:26.956Z,12.92
2019-05-17T19:29:14.756Z,12.84
2019-05-17T19:32:02.522Z,12.76
2019-05-17T19:34:50.060Z,12.69
2019-05-17T19:37:37.566Z,12.63
2019-05-17T19:40:26.031Z,12.57
2019-05-17T19:43:14.125Z,12.47
2019-05-17T19:46:01.691Z,12.39
2019-05-17T19:48:49.445Z,12.29
2019-05-17T19:51:37.652Z,12.20
2019-05-17T19:54:25.870Z,12.13
2019-05-17T19:57:13.606Z,12.07
2019-05-17T20:00:01.168Z,12.02
2019-05-17T20:02:48.741Z,11.98
2019-05-17T20:05:36.766Z,11.96
2019-05-17T20:08:24.303Z,11.94
2019-05-17T20:11:11.943Z,11.93
2019-05-17T20:13:59.475Z,11.93
2019-05-17T20:16:47.169Z,11.91
2019-05-17T20:19:34.982Z,11.88
2019-05-17T20:22:22.592Z,11.86
2019-05-17T20:25:10.249Z,11.82
2019-05-17T20:27:58.511Z,11.80
2019-05-17T20:30:46.255Z,11.78
2019-05-17T20:33:34.030Z,11.73
2019-05-17T20:36:22.206Z,11.67
2019-05-17T20:39:10.487Z,11.60
2019-05-17T20:41:58.432Z,11.56
2019-05-17T20:44:46.572Z,11.51
2019-05-17T20:47:34.381Z,11.47
2019-05-17T20:50:22.454Z,11.44
2019-05-17T20:53:18.339Z,11.42
2019-05-17T20:55:57.791Z,11.39
2019-05-17T20:58:45.933Z,11.36
2019-05-17T21:01:33.686Z,11.33
2019-05-17T21:04:21.300Z,11.30
2019-05-17T21:07:09.564Z,11.21
2019-05-17T21:09:57.689Z,11.14
2019-05-17T21:12:45.421Z,11.07
2019-05-17T21:15:45.743Z,11.00
2019-05-17T21:18:20.474Z,10.94
2019-05-17T21:21:08.075Z,10.89
2019-05-17T21:23:56.195Z,10.85
2019-05-17T21:26:43.731Z,10.80
2019-05-17T21:29:31.393Z,10.73
2019-05-17T21:32:19.599Z,10.69
2019-05-17T21:35:07.185Z,10.65
2019-05-17T21:37:55.019Z,10.61
2019-05-17T21:40:42.535Z,10.57
2019-05-17T21:43:30.278Z,10.54
2019-05-17T21:46:18.415Z,10.52
2019-05-17T21:49:05.963Z,10.50
2019-05-17T21:51:54.198Z,10.48
2019-05-17T21:54:42.099Z,10.47
2019-05-17T21:57:29.684Z,10.46
2019-05-17T22:00:56.585Z,10.45
2019-05-17T22:03:44.453Z,10.43
2019-05-17T22:06:32.231Z,10.39
2019-05-17T22:09:20.113Z,10.39
2019-05-17T22:12:09.020Z,10.36
2019-05-17T22:14:56.896Z,10.34
2019-05-17T22:17:44.378Z,10.32
2019-05-17T22:20:32.691Z,10.28
2019-05-17T22:23:20.580Z,10.24
2019-05-17T22:26:08.559Z,10.22
2019-05-17T22:28:56.501Z,10.20
2019-05-17T22:31:44.305Z,10.17
2019-05-17T22:34:31.912Z,10.16
2019-05-17T22:37:19.587Z,10.14
2019-05-17T22:40:07.733Z,10.11
2019-05-17T22:42:55.588Z,10.07
2019-05-17T22:45:44.242Z,10.04
2019-05-17T22:48:31.625Z,10.03
2019-05-17T22:51:19.183Z,10.01
2019-05-17T22:54:07.296Z,9.97
2019-05-17T22:56:55.030Z,9.96
2019-05-17T22:59:42.555Z,9.93
2019-05-17T23:02:30.164Z,9.92
2019-05-17T23:05:25.670Z,9.92
2019-05-17T23:08:05.706Z,9.89
2019-05-17T23:10:53.104Z,9.86
2019-05-17T23:13:40.677Z,9.84
2019-05-17T23:16:28.579Z,9.82
2019-05-17T23:19:16.165Z,9.79
2019-05-17T23:22:04.287Z,9.77
2019-05-17T23:24:52.139Z,9.73
2019-05-17T23:27:40.556Z,9.71
2019-05-17T23:30:28.682Z,9.66
2019-05-17T23:33:16.518Z,9.66
2019-05-17T23:36:04.422Z,9.67
2019-05-17T23:38:52.201Z,9.65
2019-05-17T23:41:39.605Z,9.62
2019-05-17T23:44:27.363Z,9.56
2019-05-17T23:47:14.895Z,9.52
2019-05-17T23:50:02.678Z,9.50
2019-05-17T23:52:50.136Z,9.49
2019-05-17T23:55:37.732Z,9.48
2019-05-17T23:58:25.317Z,9.46
